Time;durP1;ratioP1;P1;durP2;ratioP2;P2;SDS_P1;SDS_P2;PMS_P1;PMS_P2;Temp;Humidity;BMP_temperature;BMP_pressure;BME280_temperature;BME280_humidity;BME280_pressure;Samples;Min_cycle;Max_cycle;Signal;HPM_P1;HPM_P2
2022/02/02 00:00:40;;;;;;;11.38;10.10;;;6.00;99.90;;;;;;4933435;29;20091;-91
2022/02/02 00:03:10;;;;;;;13.45;10.07;;;6.20;99.90;;;;;;4936081;29;20043;-91
2022/02/02 00:08:13;;;;;;;15.00;11.20;;;5.40;99.90;;;;;;4936205;28;20020;-90
2022/02/02 00:13:28;;;;;;;11.98;10.32;;;5.60;99.90;;;;;;4922043;29;20036;-90
2022/02/02 00:20:56;;;;;;;12.55;10.98;;;6.10;99.90;;;;;;4940262;29;20046;-91
2022/02/02 00:23:31;;;;;;;13.45;11.38;;;5.60;99.90;;;;;;4949275;29;20035;-91
2022/02/02 00:26:06;;;;;;;16.00;12.10;;;6.20;99.90;;;;;;4936924;29;20070;-91
2022/02/02 00:28:36;;;;;;;12.90;11.07;;;6.20;99.90;;;;;;4954289;29;20086;-90
2022/02/02 00:31:06;;;;;;;15.45;11.43;;;6.30;99.90;;;;;;4939113;29;20042;-90
2022/02/02 00:33:39;;;;;;;14.45;10.77;;;5.50;99.90;;;;;;4952319;29;20027;-91
2022/02/02 00:36:10;;;;;;;13.30;11.40;;;5.80;99.90;;;;;;4949366;29;20069;-90
2022/02/02 00:38:36;;;;;;;14.10;11.00;;;5.80;99.90;;;;;;4951877;29;20035;-90
2022/02/02 00:41:02;;;;;;;12.23;9.90;;;5.70;99.90;;;;;;4938563;29;20504;-91
2022/02/02 00:43:28;;;;;;;12.07;9.77;;;5.80;99.90;;;;;;4935695;29;20091;-91
2022/02/02 00:45:53;;;;;;;12.88;9.82;;;6.30;99.90;;;;;;4942191;29;20067;-91
2022/02/02 00:48:25;;;;;;;12.70;10.23;;;6.40;99.90;;;;;;4925103;29;20038;-91
2022/02/02 00:50:50;;;;;;;13.73;10.77;;;6.10;99.90;;;;;;4930377;29;20031;-91
2022/02/02 00:53:17;;;;;;;13.63;10.30;;;6.20;99.90;;;;;;4952811;29;20114;-91
2022/02/02 00:55:43;;;;;;;13.90;10.70;;;5.80;99.90;;;;;;4905754;29;20027;-91
2022/02/02 00:58:09;;;;;;;12.27;10.25;;;6.50;99.90;;;;;;4940103;29;20042;-91
2022/02/02 01:00:34;;;;;;;12.93;10.25;;;6.50;99.90;;;;;;4925095;29;20043;-91
2022/02/02 01:03:00;;;;;;;12.57;10.13;;;6.30;99.90;;;;;;4941303;29;20028;-90
2022/02/02 01:05:26;;;;;;;12.73;9.85;;;6.30;99.90;;;;;;4927586;29;20033;-91
2022/02/02 01:08:25;;;;;;;14.27;10.73;;;5.90;99.90;;;;;;4921224;29;20023;-91
2022/02/02 01:10:57;;;;;;;12.13;9.88;;;6.20;99.90;;;;;;4923142;29;20020;-91
2022/02/02 01:21:33;;;;;;;12.63;10.80;;;6.30;99.90;;;;;;4940370;29;20038;-91
2022/02/02 01:29:34;;;;;;;15.07;11.10;;;5.30;99.90;;;;;;4864513;29;20048;-91
2022/02/02 01:31:59;;;;;;;13.73;11.70;;;5.60;99.90;;;;;;4860786;29;20064;-91
2022/02/02 01:34:25;;;;;;;13.07;10.77;;;5.50;99.90;;;;;;4861769;29;20120;-91
2022/02/02 01:36:51;;;;;;;13.48;10.68;;;6.20;99.90;;;;;;4864203;29;20396;-91
2022/02/02 01:39:18;;;;;;;13.30;11.15;;;6.00;99.90;;;;;;4863208;29;20082;-90
2022/02/02 01:41:45;;;;;;;12.70;11.18;;;6.50;99.90;;;;;;4862920;29;20061;-91
2022/02/02 01:45:00;;;;;;;14.88;11.25;;;6.20;99.90;;;;;;4862572;29;20123;-91
2022/02/02 01:47:01;;;;;;;13.25;10.80;;;6.70;99.90;;;;;;4843091;29;20061;-91
2022/02/02 01:52:23;;;;;;;14.98;11.45;;;6.50;99.90;;;;;;4874408;29;20455;-90
2022/02/02 01:54:55;;;;;;;14.55;11.73;;;6.60;99.90;;;;;;4863902;29;20045;-91
2022/02/02 01:59:51;;;;;;;15.80;12.27;;;6.20;99.90;;;;;;4862992;29;20045;-91
2022/02/02 02:02:17;;;;;;;15.27;12.40;;;6.00;99.90;;;;;;4862961;29;20104;-90
2022/02/02 02:04:43;;;;;;;17.02;12.93;;;5.80;99.90;;;;;;4932278;29;20130;-90
2022/02/02 02:07:08;;;;;;;15.65;12.32;;;6.50;99.90;;;;;;4924275;29;20039;-90
2022/02/02 02:09:34;;;;;;;14.68;12.57;;;6.20;99.90;;;;;;4946060;29;20046;-90
2022/02/02 02:12:06;;;;;;;16.92;12.50;;;6.10;99.90;;;;;;4928290;29;20050;-91
2022/02/02 02:17:30;;;;;;;16.55;13.05;;;6.60;99.90;;;;;;4871552;29;20041;-90
2022/02/02 02:19:55;;;;;;;14.20;12.10;;;6.30;99.90;;;;;;4859175;29;20557;-90
2022/02/02 02:22:29;;;;;;;15.45;12.52;;;6.30;99.90;;;;;;4861259;29;20021;-91
2022/02/02 02:24:54;;;;;;;14.82;12.43;;;6.80;99.90;;;;;;4861091;29;20057;-91
2022/02/02 02:27:23;;;;;;;16.13;13.43;;;6.40;99.90;;;;;;4862857;29;20470;-91
2022/02/02 02:56:50;;;;;;;13.77;11.82;;;6.00;99.90;;;;;;4939419;29;20038;-91
2022/02/02 02:59:29;;;;;;;14.02;11.50;;;6.50;99.90;;;;;;4922887;29;20024;-90
2022/02/02 03:02:27;;;;;;;15.10;11.20;;;6.60;99.90;;;;;;4923195;29;20032;-91
2022/02/02 03:34:59;;;;;;;17.42;13.75;;;6.20;99.90;;;;;;4936844;29;20498;-91
2022/02/02 04:06:56;;;;;;;19.35;13.65;;;6.10;99.90;;;;;;4900557;29;20041;-91
2022/02/02 04:09:22;;;;;;;20.98;14.32;;;6.10;99.90;;;;;;4900820;29;20482;-91
2022/02/02 04:12:13;;;;;;;18.55;13.82;;;5.90;99.90;;;;;;4899973;29;20036;-90
2022/02/02 04:54:59;;;;;;;14.88;9.02;;;6.60;99.90;;;;;;4950101;28;20031;-90
2022/02/02 05:00:47;;;;;;;9.93;8.70;;;6.50;99.90;;;;;;4952810;29;20098;-91
2022/02/02 05:11:03;;;;;;;9.70;8.07;;;6.50;99.90;;;;;;4938526;29;20040;-90
2022/02/02 05:51:30;;;;;;;8.73;7.75;;;6.30;99.90;;;;;;4906242;29;20064;-90
2022/02/02 05:53:56;;;;;;;14.88;8.63;;;6.30;99.90;;;;;;4906670;29;20036;-91
2022/02/02 05:56:21;;;;;;;11.07;8.40;;;6.30;99.90;;;;;;4920331;29;20062;-91
2022/02/02 05:58:48;;;;;;;11.25;8.57;;;6.80;99.90;;;;;;4935392;29;20031;-93
2022/02/02 06:01:15;;;;;;;17.55;12.00;;;6.50;99.90;;;;;;4923978;29;20139;-89
2022/02/02 06:03:45;;;;;;;21.42;15.73;;;6.80;99.90;;;;;;4940694;29;20082;-89
2022/02/02 06:06:11;;;;;;;17.13;13.45;;;6.00;99.90;;;;;;4940076;29;20039;-89
2022/02/02 06:08:45;;;;;;;20.27;13.95;;;6.10;99.90;;;;;;4940570;29;20031;-92
2022/02/02 06:11:19;;;;;;;16.90;12.38;;;6.20;99.90;;;;;;4939905;29;20070;-91
2022/02/02 06:13:51;;;;;;;18.55;12.98;;;6.60;99.90;;;;;;4904591;29;20031;-92
2022/02/02 06:16:19;;;;;;;18.08;12.30;;;6.10;99.90;;;;;;4918304;29;20507;-90
2022/02/02 06:18:53;;;;;;;15.07;11.88;;;6.00;99.90;;;;;;4940928;29;20459;-91
2022/02/02 06:21:25;;;;;;;17.27;12.35;;;6.50;99.90;;;;;;4940125;29;20158;-91
2022/02/02 06:24:13;;;;;;;17.27;12.52;;;5.80;99.90;;;;;;4940152;29;20031;-92
2022/02/02 06:26:41;;;;;;;16.80;13.40;;;6.10;99.90;;;;;;4940780;29;20055;-92
2022/02/02 06:29:09;;;;;;;29.20;20.65;;;6.70;99.90;;;;;;4922103;29;20125;-89
2022/02/02 06:31:36;;;;;;;26.52;16.15;;;6.50;99.90;;;;;;4936236;28;20036;-88
2022/02/02 06:34:06;;;;;;;26.05;15.73;;;5.90;99.90;;;;;;4922829;29;20031;-88
2022/02/02 06:36:34;;;;;;;20.73;13.93;;;6.20;99.90;;;;;;4939175;29;20511;-88
2022/02/02 06:38:59;;;;;;;25.15;16.13;;;6.00;99.90;;;;;;4938913;29;20048;-88
2022/02/02 06:41:27;;;;;;;23.20;15.70;;;6.70;99.90;;;;;;4923198;29;20023;-87
2022/02/02 06:43:56;;;;;;;21.88;14.32;;;6.60;99.90;;;;;;4935478;29;20043;-87
2022/02/02 06:46:27;;;;;;;21.60;14.38;;;6.50;99.90;;;;;;4938213;29;20028;-93
2022/02/02 06:48:52;;;;;;;24.88;16.02;;;6.60;99.90;;;;;;4947085;29;20054;-87
2022/02/02 06:51:28;;;;;;;21.50;14.57;;;6.50;99.90;;;;;;4947235;29;20089;-87
2022/02/02 06:54:20;;;;;;;23.58;14.70;;;6.70;99.90;;;;;;4942634;29;20034;-88
2022/02/02 06:57:06;;;;;;;20.85;13.30;;;6.90;99.90;;;;;;4924152;29;20051;-87
2022/02/02 07:05:19;;;;;;;22.38;16.13;;;6.70;99.90;;;;;;4920049;29;20023;-88
2022/02/02 07:29:09;;;;;;;20.08;14.00;;;6.80;99.90;;;;;;4936703;29;20038;-88
2022/02/02 07:31:50;;;;;;;23.45;14.45;;;6.70;99.90;;;;;;4935835;29;20027;-88
2022/02/02 07:34:53;;;;;;;20.85;14.73;;;7.00;99.90;;;;;;4946685;29;20020;-85
2022/02/02 07:37:38;;;;;;;21.58;13.95;;;6.60;99.90;;;;;;4946709;29;20495;-86
2022/02/02 07:40:08;;;;;;;22.63;14.63;;;6.80;99.90;;;;;;4938397;29;20408;-87
2022/02/02 07:42:39;;;;;;;20.65;14.23;;;6.40;99.90;;;;;;4938308;29;20417;-88
2022/02/02 07:45:10;;;;;;;19.02;13.15;;;7.10;99.90;;;;;;4938239;29;20107;-88
2022/02/02 07:47:41;;;;;;;20.70;15.07;;;6.70;99.90;;;;;;4924478;29;20020;-88
2022/02/02 07:50:08;;;;;;;27.30;17.73;;;6.80;99.90;;;;;;4937065;29;20034;-88
2022/02/02 07:52:35;;;;;;;23.30;16.15;;;6.70;99.90;;;;;;4935546;29;20023;-88
2022/02/02 07:55:03;;;;;;;17.52;12.43;;;7.20;99.90;;;;;;4938941;29;20020;-88
2022/02/02 07:57:29;;;;;;;15.80;12.75;;;6.80;99.90;;;;;;4938579;29;20412;-87
2022/02/02 07:59:59;;;;;;;21.25;13.85;;;6.80;99.90;;;;;;4937685;29;20394;-87
2022/02/02 08:05:13;;;;;;;29.90;17.63;;;6.70;99.90;;;;;;4937951;29;20055;-88
2022/02/02 08:07:45;;;;;;;25.95;15.57;;;7.10;99.90;;;;;;4934520;29;20414;-88
2022/02/02 08:10:20;;;;;;;22.38;15.88;;;7.00;99.90;;;;;;4938721;29;20068;-88
2022/02/02 08:12:50;;;;;;;29.55;17.10;;;7.20;99.90;;;;;;4938604;29;20476;-88
2022/02/02 08:15:18;;;;;;;27.48;16.88;;;7.00;99.90;;;;;;4938070;29;20441;-88
2022/02/02 08:17:45;;;;;;;24.42;14.55;;;7.10;99.90;;;;;;4937780;29;20032;-88
2022/02/02 08:20:12;;;;;;;24.27;15.15;;;6.60;99.90;;;;;;4937222;29;20061;-85
2022/02/02 08:22:41;;;;;;;22.48;16.15;;;7.40;99.90;;;;;;4917800;29;20027;-85
2022/02/02 08:25:12;;;;;;;22.58;15.55;;;6.90;99.90;;;;;;4939302;29;20032;-85
2022/02/02 08:27:42;;;;;;;24.27;15.40;;;6.80;99.90;;;;;;4938513;29;20067;-85
2022/02/02 08:30:12;;;;;;;27.48;15.80;;;7.20;99.90;;;;;;4938839;29;20566;-85
2022/02/02 08:32:47;;;;;;;18.80;14.35;;;6.90;99.90;;;;;;4941434;29;20466;-85
2022/02/02 08:35:14;;;;;;;18.65;13.20;;;7.30;99.90;;;;;;4925143;29;20034;-85
2022/02/02 08:37:44;;;;;;;16.52;12.57;;;7.10;99.90;;;;;;4938129;29;20063;-85
2022/02/02 08:42:45;;;;;;;12.30;10.20;;;6.80;99.90;;;;;;4941122;29;20052;-87
2022/02/02 08:45:19;;;;;;;14.57;10.68;;;7.50;99.90;;;;;;4925762;29;20115;-88
2022/02/02 08:47:52;;;;;;;14.15;10.55;;;7.20;99.90;;;;;;4941179;29;20035;-88
2022/02/02 08:50:26;;;;;;;15.23;11.50;;;7.30;99.90;;;;;;4941443;29;20031;-88
2022/02/02 08:52:55;;;;;;;13.52;10.50;;;7.30;99.90;;;;;;4923270;29;20023;-88
2022/02/02 08:55:36;;;;;;;12.35;10.43;;;7.50;99.90;;;;;;4940639;29;20049;-87
2022/02/02 09:00:49;;;;;;;15.63;12.77;;;7.70;99.90;;;;;;4941655;29;20047;-87
2022/02/02 09:05:58;;;;;;;16.63;12.05;;;7.10;99.90;;;;;;4941128;29;20097;-85
2022/02/02 09:08:28;;;;;;;16.13;11.70;;;7.40;99.90;;;;;;4941164;29;20118;-85
2022/02/02 09:35:50;;;;;;;17.65;13.82;;;8.30;99.90;;;;;;4901812;29;20039;-85
2022/02/02 09:38:16;;;;;;;16.98;14.57;;;8.30;99.90;;;;;;4903319;29;20040;-85
2022/02/02 09:43:20;;;;;;;17.55;14.05;;;8.70;99.90;;;;;;4907532;29;20040;-85
2022/02/02 09:45:51;;;;;;;16.50;13.93;;;8.70;99.90;;;;;;4901754;29;20044;-85
2022/02/02 09:48:27;;;;;;;20.95;14.60;;;9.60;99.90;;;;;;4885725;29;20025;-85
2022/02/02 09:50:58;;;;;;;19.33;15.60;;;9.20;99.90;;;;;;4901071;29;20036;-85
2022/02/02 10:05:01;;;;;;;15.63;12.95;;;9.40;99.90;;;;;;4940274;29;20032;-85
2022/02/02 10:13:27;;;;;;;15.77;13.65;;;10.00;99.90;;;;;;4938868;29;20484;-85
2022/02/02 10:15:54;;;;;;;16.95;13.52;;;10.10;99.90;;;;;;4940109;29;20122;-86
2022/02/02 10:18:33;;;;;;;18.77;14.00;;;9.90;99.90;;;;;;4924126;29;20038;-86
2022/02/02 10:20:59;;;;;;;17.50;14.45;;;9.80;99.90;;;;;;4939690;29;20126;-86
2022/02/02 10:23:33;;;;;;;20.35;15.18;;;9.90;99.90;;;;;;4939495;29;20023;-85
2022/02/02 10:26:20;;;;;;;20.50;15.60;;;10.10;99.90;;;;;;4937384;29;20095;-85
2022/02/02 10:28:48;;;;;;;20.10;16.92;;;9.60;99.90;;;;;;4903704;29;20396;-85
2022/02/02 10:31:14;;;;;;;19.50;16.10;;;9.70;99.90;;;;;;4939934;29;20441;-85
2022/02/02 10:33:40;;;;;;;21.20;16.80;;;9.90;99.90;;;;;;4939395;29;20086;-85
2022/02/02 10:36:20;;;;;;;18.77;16.50;;;10.20;99.90;;;;;;4939899;29;20039;-86
2022/02/02 10:39:07;;;;;;;17.08;15.27;;;10.40;99.90;;;;;;4939458;29;20023;-86
2022/02/02 10:41:51;;;;;;;17.27;14.95;;;10.90;99.90;;;;;;4939135;29;20058;-86
2022/02/02 10:44:35;;;;;;;15.90;13.98;;;11.30;99.90;;;;;;4938930;29;20031;-86
2022/02/02 10:47:30;;;;;;;14.63;11.35;;;13.50;99.90;;;;;;4920910;29;20046;-85
2022/02/02 10:50:22;;;;;;;11.80;10.07;;;18.40;99.90;;;;;;4922214;29;20082;-86
2022/02/02 10:53:26;;;;;;;10.23;9.13;;;19.80;99.90;;;;;;4916537;29;20032;-86
2022/02/02 10:56:06;;;;;;;11.40;9.63;;;16.60;99.90;;;;;;4921528;29;20416;-85
2022/02/02 11:09:06;;;;;;;7.20;6.50;;;15.90;99.90;;;;;;4939038;29;20114;-86
2022/02/02 11:11:32;;;;;;;8.00;6.60;;;18.40;99.90;;;;;;4938558;29;20042;-85
2022/02/02 11:14:01;;;;;;;6.57;5.97;;;19.30;99.90;;;;;;4935932;29;20032;-86
2022/02/02 11:16:32;;;;;;;6.30;5.38;;;19.50;99.90;;;;;;4920198;29;20545;-86
2022/02/02 11:19:00;;;;;;;6.18;5.57;;;18.00;99.90;;;;;;4937113;29;20020;-85
2022/02/02 11:21:34;;;;;;;6.18;5.32;;;15.90;99.90;;;;;;4922746;29;20036;-85
2022/02/02 11:24:16;;;;;;;6.47;5.88;;;14.50;99.90;;;;;;4923126;29;20031;-86
2022/02/02 11:26:47;;;;;;;6.45;5.85;;;13.70;99.90;;;;;;4938214;29;20027;-85
2022/02/02 11:29:40;;;;;;;6.53;5.45;;;13.70;99.90;;;;;;4937872;29;20031;-86
2022/02/02 11:32:08;;;;;;;5.78;4.97;;;13.60;99.90;;;;;;4924442;29;20036;-86
2022/02/02 11:34:34;;;;;;;4.57;4.10;;;14.00;99.90;;;;;;4936023;29;20055;-85
2022/02/02 11:37:03;;;;;;;4.50;4.10;;;16.20;99.90;;;;;;4921855;29;20448;-85
2022/02/02 11:39:37;;;;;;;4.53;4.13;;;16.70;99.90;;;;;;4938831;29;20059;-86
2022/02/02 11:42:17;;;;;;;4.43;4.00;;;15.50;99.90;;;;;;4938432;29;20090;-85
2022/02/02 11:44:54;;;;;;;4.72;4.30;;;15.50;99.90;;;;;;4938356;29;20119;-86
2022/02/02 11:47:43;;;;;;;4.28;3.88;;;19.80;99.90;;;;;;4938413;29;20155;-86
2022/02/02 11:50:09;;;;;;;4.13;3.83;;;21.60;99.90;;;;;;4936968;29;20058;-86
2022/02/02 11:52:42;;;;;;;4.30;3.83;;;21.40;99.90;;;;;;4936104;29;20062;-86
2022/02/02 11:55:30;;;;;;;4.80;4.00;;;18.90;99.90;;;;;;4938534;29;20035;-86
2022/02/02 11:58:15;;;;;;;6.13;4.53;;;17.30;99.90;;;;;;4937041;29;20039;-85
2022/02/02 12:04:14;;;;;;;1.90;1.80;;;16.30;99.90;;;;;;4938113;29;20049;-85
2022/02/02 12:06:53;;;;;;;3.50;3.20;;;16.00;99.90;;;;;;4941963;29;20031;-85
2022/02/02 12:09:33;;;;;;;2.35;2.13;;;15.40;99.90;;;;;;4941922;29;20035;-85
2022/02/02 12:58:04;;;;;;;2.83;1.90;;;13.80;99.90;;;;;;4941486;29;20624;-87
2022/02/02 13:03:00;;;;;;;2.60;2.40;;;14.10;99.90;;;;;;4940534;29;20478;-87
2022/02/02 13:05:26;;;;;;;2.17;1.80;;;13.30;99.90;;;;;;4941002;29;20031;-87
2022/02/02 13:07:56;;;;;;;2.00;1.80;;;13.70;99.90;;;;;;4919892;29;20034;-87
2022/02/02 13:10:24;;;;;;;2.38;2.17;;;13.70;99.90;;;;;;4922568;29;20039;-87
2022/02/02 13:15:27;;;;;;;2.17;1.80;;;14.30;99.90;;;;;;4939878;29;20031;-87
2022/02/02 13:18:19;;;;;;;2.15;1.80;;;14.80;99.90;;;;;;4939866;29;20039;-87
2022/02/02 13:23:23;;;;;;;1.70;1.60;;;15.50;99.90;;;;;;4939518;29;20031;-87
2022/02/02 13:26:00;;;;;;;3.15;1.90;;;15.00;99.90;;;;;;4936168;29;20461;-88
2022/02/02 13:28:49;;;;;;;1.30;1.20;;;14.90;99.90;;;;;;4939485;29;20556;-88
2022/02/02 13:34:26;;;;;;;1.35;1.25;;;15.50;99.90;;;;;;4947688;29;20031;-87
2022/02/02 13:37:10;;;;;;;2.65;1.40;;;14.80;99.90;;;;;;4922459;29;20051;-87
2022/02/02 13:42:49;;;;;;;1.63;1.40;;;14.50;99.90;;;;;;4939864;29;20106;-87
2022/02/02 13:46:06;;;;;;;1.92;1.10;;;14.60;99.90;;;;;;4939914;29;20300;-87
2022/02/02 13:54:00;;;;;;;3.92;2.13;;;14.80;99.90;;;;;;4939853;29;20032;-87
2022/02/02 14:02:14;;;;;;;1.48;1.30;;;17.30;99.90;;;;;;4936030;29;20060;-87
2022/02/02 14:31:10;;;;;;;1.50;1.40;;;18.90;99.90;;;;;;4938491;29;20038;-86
2022/02/02 14:33:37;;;;;;;2.00;1.70;;;19.50;99.90;;;;;;4938753;29;20114;-87
2022/02/02 14:36:06;;;;;;;2.10;1.40;;;18.60;99.90;;;;;;4938444;29;20042;-87
2022/02/02 14:38:44;;;;;;;2.63;2.22;;;17.50;99.90;;;;;;4939735;29;20023;-87
2022/02/02 14:41:38;;;;;;;1.63;1.08;;;16.70;99.90;;;;;;4937839;29;20057;-86
2022/02/02 14:44:15;;;;;;;4.15;3.30;;;15.80;99.90;;;;;;4921728;29;20075;-86
2022/02/02 14:47:00;;;;;;;5.47;3.17;;;15.40;99.90;;;;;;4935043;29;20041;-87
2022/02/02 14:49:38;;;;;;;2.20;1.83;;;15.00;99.90;;;;;;4948074;29;20030;-87
2022/02/02 15:32:04;;;;;;;2.00;1.67;;;13.10;99.90;;;;;;4858576;29;20075;-87
2022/02/02 15:34:35;;;;;;;1.48;1.38;;;13.00;99.90;;;;;;4858074;29;20105;-88
2022/02/02 15:39:39;;;;;;;1.80;1.70;;;12.50;99.90;;;;;;4857690;29;20049;-87
2022/02/02 15:58:13;;;;;;;3.72;2.40;;;12.00;99.90;;;;;;4938561;29;20020;-87
2022/02/02 16:03:34;;;;;;;1.73;1.55;;;11.40;99.90;;;;;;4938080;29;20392;-87
2022/02/02 16:06:07;;;;;;;2.30;2.10;;;11.30;99.90;;;;;;4937640;29;20050;-87
2022/02/02 16:08:35;;;;;;;3.65;1.77;;;11.20;99.90;;;;;;4938089;29;20063;-87
2022/02/02 16:37:42;;;;;;;3.72;2.97;;;10.50;99.90;;;;;;4934059;29;20114;-87
2022/02/02 16:40:11;;;;;;;3.05;2.58;;;10.80;99.90;;;;;;4938688;29;20048;-87
2022/02/02 16:43:08;;;;;;;3.78;2.30;;;10.20;99.90;;;;;;4937705;29;20079;-87
2022/02/02 16:45:35;;;;;;;3.05;2.00;;;10.10;99.90;;;;;;4937432;29;20111;-87
2022/02/02 16:48:01;;;;;;;1.98;1.77;;;10.10;99.90;;;;;;4937054;29;20524;-87
2022/02/02 16:50:32;;;;;;;2.88;1.60;;;10.00;99.90;;;;;;4938349;29;20023;-87
2022/02/02 16:53:03;;;;;;;2.00;1.65;;;10.00;99.90;;;;;;4938294;29;20043;-87
2022/02/02 16:55:40;;;;;;;2.97;1.83;;;9.90;99.90;;;;;;4938745;29;20114;-87
2022/02/02 17:33:36;;;;;;;3.05;2.85;;;10.40;99.90;;;;;;4841703;29;20038;-87
2022/02/02 17:36:21;;;;;;;4.05;3.30;;;10.50;99.90;;;;;;4840003;29;20077;-87
2022/02/02 18:18:50;;;;;;;3.78;3.47;;;10.70;99.90;;;;;;4939619;29;20039;-87
2022/02/02 18:21:18;;;;;;;3.05;2.72;;;10.30;99.90;;;;;;4939214;29;20106;-87
2022/02/02 18:28:48;;;;;;;2.95;2.65;;;10.00;99.90;;;;;;4935802;29;20119;-87
2022/02/02 18:34:08;;;;;;;10.23;6.93;;;10.10;99.90;;;;;;4939869;29;20400;-87
2022/02/02 18:40:50;;;;;;;3.65;3.15;;;9.80;99.90;;;;;;4938781;29;20571;-87
2022/02/02 18:47:46;;;;;;;12.32;9.52;;;9.70;99.90;;;;;;4896164;29;20028;-87
2022/02/02 18:53:39;;;;;;;7.90;6.65;;;9.80;99.90;;;;;;4896022;29;20528;-87
2022/02/02 20:08:07;;;;;;;5.03;4.13;;;8.60;99.90;;;;;;4935182;29;20488;-86
2022/02/02 20:13:35;;;;;;;6.78;3.88;;;9.20;99.90;;;;;;4916756;29;20419;-86
2022/02/02 20:16:02;;;;;;;4.18;3.78;;;8.60;99.90;;;;;;4936314;29;20031;-88
2022/02/02 20:18:30;;;;;;;4.97;4.18;;;8.80;99.90;;;;;;4937733;29;20020;-89
2022/02/02 20:20:59;;;;;;;7.32;4.80;;;9.00;99.90;;;;;;4939253;29;20054;-90
2022/02/02 20:23:25;;;;;;;6.32;5.10;;;8.80;99.90;;;;;;4938260;29;20082;-89
2022/02/02 20:25:54;;;;;;;7.10;6.20;;;8.60;99.90;;;;;;4937215;29;20068;-89
2022/02/02 20:28:19;;;;;;;10.20;9.07;;;9.10;99.90;;;;;;4941784;29;20480;-89
2022/02/02 20:30:45;;;;;;;5.72;5.22;;;8.90;99.90;;;;;;4942253;29;20034;-87
2022/02/02 20:33:11;;;;;;;6.10;5.50;;;8.60;99.90;;;;;;4941676;29;20507;-87
2022/02/02 20:35:37;;;;;;;8.05;7.32;;;8.60;99.90;;;;;;4942109;29;20031;-89
2022/02/02 20:38:02;;;;;;;8.25;6.50;;;8.60;99.90;;;;;;4939613;29;20032;-89
2022/02/02 20:40:28;;;;;;;7.25;6.55;;;8.60;99.90;;;;;;4940358;29;20079;-90
2022/02/02 20:43:28;;;;;;;8.68;7.55;;;8.60;99.90;;;;;;4927444;29;20047;-87
2022/02/02 21:10:07;;;;;;;16.05;14.35;;;9.20;99.90;;;;;;4901911;29;20033;-89
2022/02/02 21:15:25;;;;;;;15.13;12.82;;;8.50;99.90;;;;;;4901642;29;20037;-91
2022/02/02 21:17:52;;;;;;;14.70;13.20;;;8.80;99.90;;;;;;4901249;29;20046;-90
2022/02/02 21:22:53;;;;;;;15.93;13.77;;;8.40;99.90;;;;;;4897252;29;20032;-91
2022/02/02 21:25:33;;;;;;;16.45;14.00;;;9.00;99.90;;;;;;4912367;29;20052;-90
2022/02/02 21:28:01;;;;;;;16.00;14.02;;;8.50;99.90;;;;;;4911019;29;20524;-91
2022/02/02 21:30:30;;;;;;;19.63;16.40;;;9.00;99.90;;;;;;4903749;29;20091;-92
2022/02/02 21:32:55;;;;;;;22.23;16.98;;;8.60;99.90;;;;;;4902483;29;20072;-92
2022/02/02 21:35:22;;;;;;;20.30;15.93;;;8.70;99.90;;;;;;4885967;29;20418;-91
2022/02/02 21:37:50;;;;;;;21.08;18.38;;;9.10;99.90;;;;;;4897045;29;20036;-91
2022/02/02 21:40:20;;;;;;;19.55;16.75;;;9.00;99.90;;;;;;4909083;29;20051;-91
2022/02/02 21:42:47;;;;;;;19.02;17.02;;;9.00;99.90;;;;;;4900970;29;20124;-92
2022/02/02 21:45:14;;;;;;;22.73;19.85;;;8.50;99.90;;;;;;4938058;29;20134;-90
2022/02/02 21:47:40;;;;;;;20.35;18.25;;;8.90;99.90;;;;;;4940883;29;20158;-89
2022/02/02 21:50:11;;;;;;;22.05;17.85;;;9.00;99.90;;;;;;4922847;29;20548;-88
2022/02/02 21:52:37;;;;;;;21.88;17.63;;;8.50;99.90;;;;;;4938100;29;20504;-89
2022/02/02 21:55:04;;;;;;;20.13;17.95;;;8.40;99.90;;;;;;4941170;29;20039;-88
2022/02/02 21:57:30;;;;;;;20.08;17.20;;;8.50;99.90;;;;;;4924916;29;20035;-89
2022/02/02 21:59:55;;;;;;;20.52;17.45;;;9.10;99.90;;;;;;4925875;29;20493;-90
2022/02/02 22:02:21;;;;;;;19.98;16.92;;;8.60;99.90;;;;;;4940352;29;20495;-87
2022/02/02 22:04:46;;;;;;;18.70;16.45;;;8.80;99.90;;;;;;4918700;29;20114;-88
2022/02/02 22:07:12;;;;;;;20.85;18.75;;;8.80;99.90;;;;;;4940168;29;20036;-88
2022/02/02 22:09:38;;;;;;;20.13;17.42;;;8.80;99.90;;;;;;4939777;29;20385;-89
2022/02/02 22:12:04;;;;;;;18.45;16.55;;;8.90;99.90;;;;;;4940561;29;20047;-88
2022/02/02 22:14:32;;;;;;;18.65;14.95;;;8.90;99.90;;;;;;4939614;29;20376;-89
2022/02/02 22:17:01;;;;;;;17.08;14.10;;;8.90;99.90;;;;;;4936625;29;20046;-86
2022/02/02 22:19:27;;;;;;;15.48;13.55;;;8.90;99.90;;;;;;4936313;28;20118;-86
2022/02/02 22:21:52;;;;;;;15.23;13.32;;;9.20;99.90;;;;;;4940149;29;20444;-87
2022/02/02 22:24:18;;;;;;;14.75;12.98;;;9.20;99.90;;;;;;4923871;29;20036;-87
2022/02/02 22:26:45;;;;;;;13.07;11.65;;;8.90;99.90;;;;;;4939639;29;20038;-88
2022/02/02 22:29:10;;;;;;;13.32;11.75;;;9.20;99.90;;;;;;4938245;29;20106;-91
2022/02/02 22:31:36;;;;;;;13.93;11.95;;;9.00;99.90;;;;;;4937266;29;20123;-91
2022/02/02 22:34:02;;;;;;;13.77;11.93;;;9.60;99.90;;;;;;4940584;29;20118;-90
2022/02/02 22:36:27;;;;;;;15.35;13.55;;;9.00;99.90;;;;;;4939688;29;20035;-91
2022/02/02 22:38:53;;;;;;;15.25;13.20;;;9.20;99.90;;;;;;4939479;29;20039;-87
2022/02/02 22:41:19;;;;;;;13.20;11.73;;;9.00;99.90;;;;;;4923363;29;20035;-89
2022/02/02 22:43:47;;;;;;;13.00;11.70;;;9.00;99.90;;;;;;4935415;29;20416;-90
2022/02/02 22:46:15;;;;;;;13.55;11.35;;;9.00;99.90;;;;;;4940315;29;20032;-91
2022/02/02 22:48:42;;;;;;;13.80;11.40;;;9.40;99.90;;;;;;4938311;29;20547;-91
2022/02/02 22:51:09;;;;;;;12.05;10.80;;;8.90;99.90;;;;;;4939458;29;20539;-91
2022/02/02 22:53:35;;;;;;;13.00;10.57;;;8.90;99.90;;;;;;4939128;29;20031;-90
2022/02/02 22:56:00;;;;;;;12.05;10.55;;;8.90;99.90;;;;;;4937176;29;20090;-89
2022/02/02 22:58:26;;;;;;;11.52;10.32;;;9.00;99.90;;;;;;4938154;29;20031;-89
2022/02/02 23:00:52;;;;;;;11.93;10.55;;;8.90;99.90;;;;;;4923306;29;20036;-89
2022/02/02 23:03:21;;;;;;;11.77;10.27;;;9.00;99.90;;;;;;4938843;29;20090;-89
2022/02/02 23:05:52;;;;;;;11.77;10.57;;;9.00;99.90;;;;;;4939360;29;20441;-90
2022/02/02 23:08:19;;;;;;;13.98;10.60;;;8.70;99.90;;;;;;4939229;29;20046;-88
2022/02/02 23:10:46;;;;;;;11.88;10.02;;;8.60;99.90;;;;;;4934855;29;20039;-90
2022/02/02 23:13:14;;;;;;;12.18;10.88;;;8.50;99.90;;;;;;4940458;29;20070;-89
2022/02/02 23:15:48;;;;;;;12.05;10.85;;;8.50;99.90;;;;;;4938719;29;20032;-89
2022/02/02 23:20:41;;;;;;;12.82;11.52;;;8.60;99.90;;;;;;4939169;29;20035;-87
2022/02/02 23:23:07;;;;;;;13.02;10.80;;;8.60;99.90;;;;;;4936695;29;20083;-88
2022/02/02 23:25:35;;;;;;;11.88;10.77;;;8.70;99.90;;;;;;4936138;29;20031;-88
2022/02/02 23:28:02;;;;;;;12.63;11.20;;;8.70;99.90;;;;;;4920182;29;20023;-89
2022/02/02 23:30:29;;;;;;;11.80;10.70;;;9.10;99.90;;;;;;4947109;29;20031;-89
2022/02/02 23:32:58;;;;;;;12.27;11.07;;;8.70;99.90;;;;;;4944394;29;20059;-88
2022/02/02 23:35:26;;;;;;;11.52;10.32;;;8.60;99.90;;;;;;4938032;29;20035;-88
2022/02/02 23:37:52;;;;;;;12.82;11.00;;;8.70;99.90;;;;;;4934150;29;20484;-87
2022/02/02 23:40:18;;;;;;;12.93;10.45;;;8.80;99.90;;;;;;4938422;29;20127;-86
2022/02/02 23:42:44;;;;;;;12.95;11.63;;;9.20;99.90;;;;;;4937950;29;20130;-86
2022/02/02 23:45:09;;;;;;;12.05;10.50;;;9.30;99.90;;;;;;4937554;29;20046;-87
2022/02/02 23:47:40;;;;;;;12.23;10.57;;;9.20;99.90;;;;;;4938207;29;20031;-86
2022/02/02 23:50:10;;;;;;;12.25;10.95;;;8.90;99.90;;;;;;4920653;29;20039;-87
2022/02/02 23:52:53;;;;;;;14.43;11.98;;;9.00;99.90;;;;;;4935737;29;20086;-87
2022/02/02 23:55:29;;;;;;;12.45;11.15;;;9.20;99.90;;;;;;4929241;29;20031;-87
